Time;durP1;ratioP1;P1;durP2;ratioP2;P2;SDS_P1;SDS_P2;PMS_P1;PMS_P2;Temp;Humidity;BMP_temperature;BMP_pressure;BME280_temperature;BME280_humidity;BME280_pressure;Samples;Min_cycle;Max_cycle;Signal;HPM_P1;HPM_P2
2023/07/10 00:00:20;;;;;;;23.15;5.57;;;18.80;99.90;;;;;;4949409;29;20047;-70
2023/07/10 00:02:46;;;;;;;26.98;5.55;;;18.80;99.90;;;;;;4915804;29;20048;-71
2023/07/10 00:05:16;;;;;;;20.38;5.07;;;18.80;99.90;;;;;;4920370;29;20245;-70
2023/07/10 00:07:42;;;;;;;24.20;5.18;;;18.80;99.90;;;;;;4950092;28;20067;-71
2023/07/10 00:10:13;;;;;;;25.15;6.30;;;18.80;99.90;;;;;;4917668;29;20047;-70
2023/07/10 00:12:40;;;;;;;24.33;5.35;;;18.80;99.90;;;;;;4931878;29;20087;-71
2023/07/10 00:15:19;;;;;;;17.75;4.72;;;18.80;99.90;;;;;;4933485;29;20053;-70
2023/07/10 00:17:47;;;;;;;13.88;4.43;;;18.80;99.90;;;;;;4930890;29;20054;-70
2023/07/10 00:20:17;;;;;;;19.33;5.15;;;18.80;99.90;;;;;;4921889;29;20066;-71
2023/07/10 00:22:43;;;;;;;16.25;5.05;;;18.80;99.90;;;;;;4932505;29;20054;-71
2023/07/10 00:25:09;;;;;;;19.08;5.35;;;18.70;99.90;;;;;;4932112;29;20039;-71
2023/07/10 00:27:35;;;;;;;20.17;5.45;;;18.80;99.90;;;;;;4931666;29;20062;-70
2023/07/10 00:30:01;;;;;;;15.50;4.97;;;18.70;99.90;;;;;;4931059;29;20043;-71
2023/07/10 00:32:27;;;;;;;17.00;4.97;;;18.70;99.90;;;;;;4913675;29;20338;-70
2023/07/10 00:34:54;;;;;;;11.32;4.50;;;18.70;99.90;;;;;;4925343;29;20048;-71
2023/07/10 00:37:19;;;;;;;16.15;4.43;;;18.70;99.90;;;;;;4906392;29;20083;-71
2023/07/10 00:39:45;;;;;;;16.23;4.90;;;18.70;99.90;;;;;;4931756;29;20042;-70
2023/07/10 00:42:18;;;;;;;22.25;5.15;;;18.70;99.90;;;;;;4934995;29;20039;-71
2023/07/10 00:44:52;;;;;;;14.48;5.00;;;18.60;99.90;;;;;;4932940;29;20051;-70
2023/07/10 00:47:31;;;;;;;11.98;4.68;;;18.60;99.90;;;;;;4917432;29;20043;-70
2023/07/10 00:50:09;;;;;;;12.75;4.53;;;18.60;99.90;;;;;;4917197;29;20126;-70
2023/07/10 00:52:39;;;;;;;15.10;5.03;;;18.60;99.90;;;;;;4931371;29;20047;-70
2023/07/10 00:55:17;;;;;;;14.63;5.28;;;18.60;99.90;;;;;;4913710;29;20048;-71
2023/07/10 00:57:47;;;;;;;12.40;4.80;;;18.60;99.90;;;;;;4932532;29;20051;-69
2023/07/10 01:00:17;;;;;;;12.80;5.72;;;18.60;99.90;;;;;;4930744;29;20077;-70
2023/07/10 01:02:43;;;;;;;13.20;5.70;;;18.50;99.90;;;;;;4932545;29;20051;-70
2023/07/10 01:05:09;;;;;;;11.63;5.13;;;18.60;99.90;;;;;;4930989;29;20038;-70
2023/07/10 01:07:41;;;;;;;14.10;5.40;;;18.50;99.90;;;;;;4931902;29;20537;-70
2023/07/10 01:10:09;;;;;;;13.93;5.55;;;18.50;99.90;;;;;;4920354;29;20074;-69
2023/07/10 01:12:36;;;;;;;11.95;4.53;;;18.50;99.90;;;;;;4928911;29;20047;-69
2023/07/10 01:15:04;;;;;;;16.38;5.05;;;18.40;99.90;;;;;;4932422;29;20109;-69
2023/07/10 01:17:30;;;;;;;14.50;4.82;;;18.50;99.90;;;;;;4929867;29;20549;-69
2023/07/10 01:20:00;;;;;;;18.80;4.82;;;18.40;99.90;;;;;;4932353;29;20065;-69
2023/07/10 01:22:27;;;;;;;10.02;3.97;;;18.40;99.90;;;;;;4930079;29;20046;-69
2023/07/10 01:24:53;;;;;;;11.32;4.25;;;18.40;99.90;;;;;;4913685;29;20048;-69
2023/07/10 01:27:22;;;;;;;14.75;4.18;;;18.40;99.90;;;;;;4924255;29;20516;-69
2023/07/10 01:30:03;;;;;;;11.63;4.03;;;18.30;99.90;;;;;;4931827;29;20062;-69
2023/07/10 01:32:29;;;;;;;12.98;4.90;;;18.40;99.90;;;;;;4931987;29;20498;-69
2023/07/10 01:35:04;;;;;;;14.93;4.90;;;18.30;99.90;;;;;;4914640;29;20928;-69
2023/07/10 01:37:30;;;;;;;11.35;4.55;;;18.30;99.90;;;;;;4931709;29;20166;-69
2023/07/10 01:39:56;;;;;;;19.17;5.53;;;18.20;99.90;;;;;;4947727;29;20126;-70
2023/07/10 01:42:22;;;;;;;12.88;5.65;;;18.20;99.90;;;;;;4915848;29;20139;-70
2023/07/10 01:44:53;;;;;;;8.73;5.40;;;18.30;99.90;;;;;;4931599;29;20051;-69
2023/07/10 01:47:20;;;;;;;12.50;5.80;;;18.30;99.90;;;;;;4915816;29;20090;-70
2023/07/10 01:49:53;;;;;;;19.60;6.68;;;18.30;99.90;;;;;;4932104;29;20502;-70
2023/07/10 01:52:21;;;;;;;17.63;7.88;;;18.30;99.90;;;;;;4934306;29;20054;-69
2023/07/10 01:54:47;;;;;;;17.85;7.22;;;18.30;99.90;;;;;;4935514;29;20047;-70
2023/07/10 01:57:14;;;;;;;22.55;8.40;;;18.30;99.90;;;;;;4934108;29;20046;-71
2023/07/10 01:59:40;;;;;;;15.15;7.82;;;18.30;99.90;;;;;;4908805;29;20098;-70
2023/07/10 02:02:07;;;;;;;20.98;7.50;;;18.30;99.90;;;;;;4933792;29;20043;-69
2023/07/10 02:04:33;;;;;;;20.38;7.72;;;18.30;99.90;;;;;;4934586;29;20054;-70
2023/07/10 02:06:58;;;;;;;16.40;8.23;;;18.30;99.90;;;;;;4935637;29;20055;-69
2023/07/10 02:09:26;;;;;;;19.33;8.68;;;18.30;99.90;;;;;;4929083;29;20059;-70
2023/07/10 02:11:54;;;;;;;15.98;8.10;;;18.30;99.90;;;;;;4927750;29;20043;-70
2023/07/10 02:14:20;;;;;;;15.70;8.45;;;18.20;99.90;;;;;;4934041;29;20053;-70
2023/07/10 02:16:47;;;;;;;20.17;10.02;;;18.30;99.90;;;;;;4916081;29;20447;-69
2023/07/10 02:19:13;;;;;;;25.63;9.30;;;18.20;99.90;;;;;;4928914;29;20039;-69
2023/07/10 02:21:39;;;;;;;21.20;8.50;;;18.30;99.90;;;;;;4934487;29;20062;-69
2023/07/10 02:24:06;;;;;;;17.35;8.07;;;18.20;99.90;;;;;;4935104;29;20055;-69
2023/07/10 02:26:32;;;;;;;18.13;9.07;;;18.30;99.90;;;;;;4936327;29;20070;-70
2023/07/10 02:28:58;;;;;;;19.40;9.30;;;18.20;99.90;;;;;;4935705;29;20402;-70
2023/07/10 02:31:25;;;;;;;20.42;8.98;;;18.20;99.90;;;;;;4933328;29;20047;-70
2023/07/10 02:33:51;;;;;;;17.40;8.40;;;18.30;99.90;;;;;;4934934;29;20087;-70
2023/07/10 02:36:17;;;;;;;19.13;8.45;;;18.20;99.90;;;;;;4933341;29;20564;-70
2023/07/10 02:38:43;;;;;;;14.20;8.23;;;18.20;99.90;;;;;;4934688;29;20619;-70
2023/07/10 02:41:09;;;;;;;15.50;8.15;;;18.20;99.90;;;;;;4934234;29;20054;-70
2023/07/10 02:43:34;;;;;;;19.77;8.38;;;18.10;99.90;;;;;;4933393;29;20051;-70
2023/07/10 02:46:01;;;;;;;16.75;8.30;;;18.20;99.90;;;;;;4935733;29;20134;-70
2023/07/10 02:48:27;;;;;;;14.52;7.90;;;18.10;99.90;;;;;;4932995;29;20055;-69
2023/07/10 02:50:53;;;;;;;15.75;7.82;;;18.20;99.90;;;;;;4931852;29;20115;-69
2023/07/10 02:53:18;;;;;;;14.75;7.60;;;18.20;99.90;;;;;;4929942;29;20556;-70
2023/07/10 02:55:44;;;;;;;14.27;7.50;;;18.20;99.90;;;;;;4934456;29;20047;-70
2023/07/10 02:58:10;;;;;;;12.82;7.68;;;18.20;99.90;;;;;;4914291;29;20538;-69
2023/07/10 03:00:36;;;;;;;18.02;8.20;;;18.10;99.90;;;;;;4914576;29;20043;-70
2023/07/10 03:03:03;;;;;;;16.25;7.65;;;18.20;99.90;;;;;;4918112;29;20090;-69
2023/07/10 03:05:28;;;;;;;19.17;7.95;;;18.20;99.90;;;;;;4932953;29;20039;-70
2023/07/10 03:07:54;;;;;;;20.30;6.75;;;18.10;99.90;;;;;;4936439;28;20157;-70
2023/07/10 03:10:20;;;;;;;12.85;6.18;;;18.10;99.90;;;;;;4920082;28;20059;-70
2023/07/10 03:12:46;;;;;;;18.23;6.60;;;18.10;99.90;;;;;;4953447;28;20410;-70
2023/07/10 03:15:13;;;;;;;12.10;5.47;;;18.00;99.90;;;;;;4951976;28;20047;-70
2023/07/10 03:17:40;;;;;;;11.18;5.50;;;18.00;99.90;;;;;;4953348;28;20082;-70
2023/07/10 03:20:06;;;;;;;12.07;5.82;;;18.00;99.90;;;;;;4953523;28;20042;-69
2023/07/10 03:22:32;;;;;;;9.32;5.28;;;18.00;99.90;;;;;;4936569;28;20067;-69
2023/07/10 03:24:58;;;;;;;13.32;5.38;;;18.00;99.90;;;;;;4953061;28;20143;-70
2023/07/10 03:27:24;;;;;;;10.05;4.75;;;17.90;99.90;;;;;;4952077;28;20054;-70
2023/07/10 03:29:51;;;;;;;9.98;5.72;;;17.90;99.90;;;;;;4953306;28;20108;-70
2023/07/10 03:32:17;;;;;;;11.07;4.78;;;17.80;99.90;;;;;;4951325;28;20051;-70
2023/07/10 03:34:42;;;;;;;8.38;4.70;;;17.90;99.90;;;;;;4936884;28;20038;-70
2023/07/10 03:37:08;;;;;;;9.02;4.93;;;17.90;99.90;;;;;;4952206;28;20059;-69
2023/07/10 03:39:35;;;;;;;6.93;4.95;;;17.90;99.90;;;;;;4939052;28;20046;-70
2023/07/10 03:42:01;;;;;;;11.23;4.97;;;17.80;99.90;;;;;;4937172;28;20057;-69
2023/07/10 03:44:27;;;;;;;9.15;4.63;;;17.80;99.90;;;;;;4951777;28;20057;-70
2023/07/10 03:46:53;;;;;;;12.38;4.68;;;17.80;99.90;;;;;;4952986;28;20046;-70
2023/07/10 03:49:19;;;;;;;9.20;4.72;;;17.80;99.90;;;;;;4935619;28;20131;-70
2023/07/10 03:51:47;;;;;;;6.80;4.07;;;17.80;99.90;;;;;;4952919;28;20073;-70
2023/07/10 03:54:14;;;;;;;4.85;2.30;;;17.70;99.90;;;;;;4951251;28;20497;-70
2023/07/10 03:56:40;;;;;;;4.95;2.97;;;17.70;99.90;;;;;;4952087;28;20043;-70
2023/07/10 03:59:08;;;;;;;6.03;3.17;;;17.70;99.90;;;;;;4952540;28;20046;-70
2023/07/10 04:01:34;;;;;;;6.03;2.78;;;17.70;99.90;;;;;;4947576;28;20078;-70
2023/07/10 04:04:01;;;;;;;4.65;2.70;;;17.70;99.90;;;;;;4952521;28;20493;-70
2023/07/10 04:06:27;;;;;;;4.85;2.33;;;17.60;99.90;;;;;;4946403;29;20702;-70
2023/07/10 04:08:53;;;;;;;7.07;2.55;;;17.60;99.90;;;;;;4929427;29;20095;-70
2023/07/10 04:11:21;;;;;;;4.75;2.22;;;17.60;99.90;;;;;;4897612;29;20097;-69
2023/07/10 04:13:49;;;;;;;4.68;2.47;;;17.50;99.90;;;;;;4926910;29;20044;-70
2023/07/10 04:16:20;;;;;;;8.15;2.20;;;17.60;99.90;;;;;;4932674;29;20486;-70
2023/07/10 04:18:47;;;;;;;7.07;2.08;;;17.60;99.90;;;;;;4949224;29;20094;-70
2023/07/10 04:21:23;;;;;;;2.60;1.65;;;17.60;99.90;;;;;;4933103;29;20114;-70
2023/07/10 04:23:50;;;;;;;4.05;2.00;;;17.60;99.90;;;;;;4931314;29;20054;-70
2023/07/10 04:26:20;;;;;;;4.47;1.83;;;17.60;99.90;;;;;;4933069;29;20051;-70
2023/07/10 04:28:48;;;;;;;8.02;2.10;;;17.60;99.90;;;;;;4931340;29;20132;-69
2023/07/10 04:31:15;;;;;;;4.25;1.95;;;17.60;99.90;;;;;;4932853;29;20059;-70
2023/07/10 04:33:41;;;;;;;5.07;1.90;;;17.70;99.90;;;;;;4928737;29;20512;-70
2023/07/10 04:36:08;;;;;;;5.50;1.60;;;17.70;99.90;;;;;;4948126;29;20385;-70
2023/07/10 04:38:34;;;;;;;4.97;1.73;;;17.70;99.90;;;;;;4917640;29;20039;-69
2023/07/10 04:41:02;;;;;;;5.40;2.67;;;17.70;99.90;;;;;;4930749;29;20122;-69
2023/07/10 04:43:30;;;;;;;4.18;1.70;;;17.70;99.90;;;;;;4929460;29;20156;-70
2023/07/10 04:46:03;;;;;;;3.58;1.95;;;17.80;99.90;;;;;;4914336;29;20043;-69
2023/07/10 04:48:30;;;;;;;3.05;1.98;;;17.80;99.90;;;;;;4928424;29;20078;-69
2023/07/10 04:51:02;;;;;;;5.25;1.50;;;17.80;99.90;;;;;;4923991;29;20489;-69
2023/07/10 04:53:30;;;;;;;3.55;1.50;;;17.90;99.90;;;;;;4946593;29;20106;-70
2023/07/10 04:55:56;;;;;;;6.10;1.75;;;17.90;99.90;;;;;;4932174;29;20122;-69
2023/07/10 04:58:24;;;;;;;3.65;1.58;;;17.80;99.90;;;;;;4948100;29;20106;-69
2023/07/10 05:00:54;;;;;;;4.80;1.73;;;17.80;99.90;;;;;;4900957;29;20051;-70
2023/07/10 05:03:20;;;;;;;4.10;1.77;;;17.90;99.90;;;;;;4930955;29;20106;-69
2023/07/10 05:05:58;;;;;;;6.45;1.88;;;17.90;99.90;;;;;;4931027;29;20055;-69
2023/07/10 05:08:25;;;;;;;6.60;1.80;;;17.90;99.90;;;;;;4950331;28;20087;-69
2023/07/10 05:10:54;;;;;;;5.57;2.03;;;17.90;99.90;;;;;;4964797;28;20054;-69
2023/07/10 05:13:25;;;;;;;3.73;1.57;;;17.90;99.90;;;;;;4932441;29;20047;-70
2023/07/10 05:15:51;;;;;;;8.02;1.95;;;17.90;99.90;;;;;;4929974;28;20420;-69
2023/07/10 05:18:17;;;;;;;1.85;1.73;;;17.90;99.90;;;;;;4952015;28;20122;-69
2023/07/10 05:20:45;;;;;;;4.82;2.45;;;18.00;99.90;;;;;;4948301;28;20596;-69
2023/07/10 05:23:11;;;;;;;6.03;2.42;;;17.90;99.90;;;;;;4937871;28;20054;-69
2023/07/10 05:25:37;;;;;;;3.95;2.42;;;18.00;99.90;;;;;;4951726;28;20055;-69
2023/07/10 05:28:04;;;;;;;8.55;2.42;;;18.00;99.90;;;;;;4950009;28;20079;-70
2023/07/10 05:30:30;;;;;;;5.22;2.35;;;18.00;99.90;;;;;;4952002;28;20093;-70
2023/07/10 05:32:56;;;;;;;4.95;1.98;;;18.00;99.90;;;;;;4948908;28;20506;-69
2023/07/10 05:35:22;;;;;;;6.88;2.35;;;18.00;99.90;;;;;;4951544;28;20042;-70
2023/07/10 05:37:48;;;;;;;8.55;2.63;;;18.10;99.90;;;;;;4949784;28;20059;-69
2023/07/10 05:40:14;;;;;;;9.45;3.38;;;18.10;99.90;;;;;;4950848;28;20086;-70
2023/07/10 05:42:42;;;;;;;4.60;2.75;;;18.10;99.90;;;;;;4967605;28;20055;-69
2023/07/10 05:45:08;;;;;;;7.50;2.88;;;18.10;99.90;;;;;;4950181;28;20158;-70
2023/07/10 05:47:34;;;;;;;6.43;3.78;;;18.10;99.90;;;;;;4951514;28;20105;-69
2023/07/10 05:50:00;;;;;;;5.90;3.25;;;18.20;99.90;;;;;;4966346;28;20394;-69
2023/07/10 05:52:25;;;;;;;4.50;2.60;;;18.20;99.90;;;;;;4951092;28;20129;-69
2023/07/10 05:54:52;;;;;;;5.68;2.85;;;18.20;99.90;;;;;;4966589;28;20137;-69
2023/07/10 05:57:18;;;;;;;5.75;3.08;;;18.20;99.90;;;;;;4951635;28;20042;-69
2023/07/10 05:59:44;;;;;;;4.18;2.85;;;18.20;99.90;;;;;;4950568;28;20054;-69
2023/07/10 06:02:13;;;;;;;4.05;2.47;;;18.20;99.90;;;;;;4950105;28;20478;-69
2023/07/10 06:04:39;;;;;;;4.85;2.30;;;18.20;99.90;;;;;;4949522;28;20383;-69
2023/07/10 06:07:05;;;;;;;5.05;2.75;;;18.20;99.90;;;;;;4939643;29;20101;-70
2023/07/10 06:09:31;;;;;;;3.90;2.38;;;18.30;99.90;;;;;;4910386;29;20047;-69
2023/07/10 06:11:58;;;;;;;6.97;3.55;;;18.30;99.90;;;;;;4922225;29;20125;-69
2023/07/10 06:14:24;;;;;;;6.72;2.60;;;18.30;99.90;;;;;;4931530;29;20051;-69
2023/07/10 06:16:50;;;;;;;5.25;2.63;;;18.30;99.90;;;;;;4930340;29;20055;-70
2023/07/10 06:19:17;;;;;;;5.10;2.60;;;18.30;99.90;;;;;;4931193;29;20051;-69
2023/07/10 06:21:46;;;;;;;4.95;2.40;;;18.40;99.90;;;;;;4915937;29;20049;-69
2023/07/10 06:24:12;;;;;;;5.95;2.60;;;18.40;99.90;;;;;;4929896;29;20061;-69
2023/07/10 06:26:37;;;;;;;3.70;2.10;;;18.40;99.90;;;;;;4932082;29;20445;-70
2023/07/10 06:29:03;;;;;;;4.00;2.38;;;18.30;99.90;;;;;;4929762;29;20054;-70
2023/07/10 06:31:29;;;;;;;8.48;2.60;;;18.40;99.90;;;;;;4931767;28;20098;-69
2023/07/10 06:33:55;;;;;;;3.70;2.22;;;18.40;99.90;;;;;;4932454;29;20062;-70
2023/07/10 06:36:21;;;;;;;5.65;2.65;;;18.40;99.90;;;;;;4934637;29;20047;-69
2023/07/10 06:38:46;;;;;;;6.28;2.42;;;18.50;99.90;;;;;;4934034;29;20047;-70
2023/07/10 06:41:13;;;;;;;4.55;2.45;;;18.50;99.90;;;;;;4933773;29;20043;-69
2023/07/10 06:43:39;;;;;;;4.68;2.15;;;18.50;99.90;;;;;;4934781;29;20055;-69
2023/07/10 06:46:05;;;;;;;4.63;2.15;;;18.60;99.90;;;;;;4932860;29;20177;-70
2023/07/10 06:48:31;;;;;;;4.47;2.80;;;18.60;99.90;;;;;;4933165;29;20050;-70
2023/07/10 06:50:57;;;;;;;7.82;2.25;;;18.60;99.90;;;;;;4929625;29;20106;-70
2023/07/10 06:53:24;;;;;;;2.35;2.05;;;18.70;99.90;;;;;;4901861;29;20047;-70
2023/07/10 06:55:54;;;;;;;5.88;2.58;;;18.70;99.90;;;;;;4931218;29;20063;-70
2023/07/10 06:58:20;;;;;;;6.70;2.60;;;18.80;99.90;;;;;;4929882;29;20138;-70
2023/07/10 07:00:45;;;;;;;4.85;2.33;;;18.90;99.90;;;;;;4926015;29;20499;-70
2023/07/10 07:03:11;;;;;;;7.75;2.15;;;19.00;99.90;;;;;;4939412;29;20420;-69
2023/07/10 07:05:39;;;;;;;6.70;2.17;;;19.20;99.90;;;;;;4901415;29;20174;-70
2023/07/10 07:08:06;;;;;;;4.45;2.10;;;19.30;99.90;;;;;;4932057;29;20146;-70
2023/07/10 07:10:32;;;;;;;4.78;2.13;;;19.40;99.90;;;;;;4928488;29;20047;-71
2023/07/10 07:12:58;;;;;;;3.60;1.67;;;19.40;99.90;;;;;;4932638;29;20047;-70
2023/07/10 07:15:25;;;;;;;6.85;2.40;;;19.40;99.90;;;;;;4925559;29;20415;-70
2023/07/10 07:17:51;;;;;;;2.60;1.92;;;19.60;99.90;;;;;;4918704;29;20063;-70
2023/07/10 07:20:17;;;;;;;4.32;2.40;;;19.60;99.90;;;;;;4915128;29;20056;-69
2023/07/10 07:22:43;;;;;;;3.30;1.98;;;19.70;99.90;;;;;;4930185;29;20051;-69
2023/07/10 07:25:08;;;;;;;7.50;2.13;;;19.80;99.90;;;;;;4949379;29;20086;-69
2023/07/10 07:27:34;;;;;;;7.45;2.03;;;19.80;99.90;;;;;;4934395;29;20087;-69
2023/07/10 07:30:05;;;;;;;4.88;2.50;;;19.90;99.90;;;;;;4931716;29;20498;-70
2023/07/10 07:32:31;;;;;;;6.88;2.05;;;19.90;99.90;;;;;;4918220;29;20062;-69
2023/07/10 07:34:57;;;;;;;5.43;2.10;;;20.10;99.90;;;;;;4917068;29;20047;-69
2023/07/10 07:37:23;;;;;;;8.38;2.55;;;20.10;99.90;;;;;;4950416;29;20055;-70
2023/07/10 07:39:48;;;;;;;6.43;3.03;;;20.20;99.90;;;;;;4922181;29;20083;-69
2023/07/10 07:42:15;;;;;;;6.05;2.45;;;20.60;99.90;;;;;;4925301;29;20087;-70
2023/07/10 07:44:41;;;;;;;6.40;2.20;;;20.70;99.90;;;;;;4911803;29;20147;-70
2023/07/10 07:47:07;;;;;;;6.53;2.53;;;20.60;99.90;;;;;;4932051;29;20039;-69
2023/07/10 07:49:33;;;;;;;4.22;2.13;;;20.80;99.90;;;;;;4933724;29;20051;-69
2023/07/10 07:51:59;;;;;;;6.18;2.55;;;21.00;99.90;;;;;;4949554;29;20047;-69
2023/07/10 07:54:25;;;;;;;7.10;2.50;;;20.90;99.90;;;;;;4933349;29;20039;-70
2023/07/10 07:56:51;;;;;;;2.88;1.95;;;21.00;99.90;;;;;;4916945;29;20644;-69
2023/07/10 07:59:18;;;;;;;6.40;1.85;;;21.30;99.90;;;;;;4948788;29;20066;-70
2023/07/10 08:01:45;;;;;;;7.28;1.75;;;21.50;99.90;;;;;;4932085;29;20051;-69
2023/07/10 08:04:11;;;;;;;11.63;2.70;;;21.90;99.90;;;;;;4931264;29;20051;-69
2023/07/10 08:06:38;;;;;;;3.85;1.52;;;22.10;97.20;;;;;;4934082;28;20085;-70
2023/07/10 08:09:05;;;;;;;8.35;1.85;;;22.30;99.90;;;;;;4927097;29;20055;-69
2023/07/10 08:11:30;;;;;;;3.55;1.63;;;22.40;94.80;;;;;;4925708;29;20798;-69
2023/07/10 08:13:58;;;;;;;6.20;1.95;;;22.60;94.00;;;;;;4921552;29;20052;-69
2023/07/10 08:16:24;;;;;;;3.28;1.90;;;22.70;92.30;;;;;;4920132;29;20086;-68
2023/07/10 08:18:50;;;;;;;5.10;1.88;;;22.90;88.30;;;;;;4932485;29;20118;-69
2023/07/10 08:21:15;;;;;;;6.25;1.92;;;22.90;93.90;;;;;;4915144;29;20074;-69
2023/07/10 08:23:41;;;;;;;3.78;1.38;;;23.00;89.10;;;;;;4927839;29;20518;-69
2023/07/10 08:26:08;;;;;;;6.00;1.90;;;23.10;78.40;;;;;;4931558;29;20051;-69
2023/07/10 08:28:34;;;;;;;6.15;2.00;;;23.00;84.30;;;;;;4909217;29;20811;-69
2023/07/10 08:31:00;;;;;;;8.43;2.15;;;23.00;83.00;;;;;;4930785;29;20162;-69
2023/07/10 08:33:26;;;;;;;5.57;1.50;;;22.90;85.00;;;;;;4931540;29;20098;-69
2023/07/10 08:36:03;;;;;;;6.07;1.90;;;22.90;79.30;;;;;;4944962;29;20040;-69
2023/07/10 08:38:31;;;;;;;6.28;1.95;;;22.90;84.60;;;;;;4934569;29;20055;-68
2023/07/10 08:41:00;;;;;;;3.13;1.38;;;22.90;90.40;;;;;;4936405;29;20047;-69
2023/07/10 08:43:37;;;;;;;4.22;1.55;;;23.00;79.60;;;;;;4937770;29;20039;-69
2023/07/10 08:46:12;;;;;;;3.97;1.55;;;22.90;76.00;;;;;;4934158;29;20099;-69
2023/07/10 08:48:46;;;;;;;4.53;1.70;;;22.90;78.20;;;;;;4927683;29;20050;-69
2023/07/10 08:51:21;;;;;;;5.85;2.17;;;23.00;73.50;;;;;;4924600;29;20059;-69
2023/07/10 08:54:11;;;;;;;4.47;1.33;;;23.10;66.20;;;;;;4925222;29;20063;-69
2023/07/10 08:57:09;;;;;;;6.28;1.73;;;23.30;67.50;;;;;;4912828;29;20154;-68
2023/07/10 08:59:36;;;;;;;6.30;2.05;;;23.30;42.60;;;;;;4921928;29;20063;-68
2023/07/10 09:02:02;;;;;;;2.90;1.30;;;23.40;43.70;;;;;;4929193;29;20134;-68
2023/07/10 09:04:30;;;;;;;3.63;1.23;;;23.40;37.80;;;;;;4896020;29;20050;-69
2023/07/10 09:07:00;;;;;;;5.53;1.85;;;23.60;46.20;;;;;;4925800;28;20062;-69
2023/07/10 09:09:38;;;;;;;4.97;1.58;;;23.40;19.30;;;;;;4942799;29;20079;-69
2023/07/10 09:12:21;;;;;;;6.13;1.63;;;23.40;28.60;;;;;;4961931;28;20059;-69
2023/07/10 09:15:07;;;;;;;5.50;1.40;;;23.40;33.80;;;;;;4948123;29;20119;-69
2023/07/10 09:18:02;;;;;;;6.03;1.40;;;23.20;37.40;;;;;;4951145;28;20117;-69
2023/07/10 09:20:28;;;;;;;4.13;1.33;;;23.10;8.50;;;;;;4951137;28;20059;-69
2023/07/10 09:23:00;;;;;;;6.07;1.77;;;23.10;29.50;;;;;;4950052;28;20516;-69
2023/07/10 09:25:27;;;;;;;5.70;1.65;;;23.20;26.90;;;;;;4950581;28;20053;-69
2023/07/10 09:27:54;;;;;;;3.80;1.20;;;23.20;38.60;;;;;;4950880;28;20062;-68
2023/07/10 09:30:26;;;;;;;10.73;1.80;;;23.10;26.30;;;;;;4950231;28;20054;-68
2023/07/10 09:33:03;;;;;;;6.38;1.65;;;23.10;37.80;;;;;;4950287;28;20473;-69
2023/07/10 09:35:30;;;;;;;5.88;1.33;;;23.10;30.10;;;;;;4949489;28;20050;-68
2023/07/10 09:37:56;;;;;;;5.80;1.33;;;23.10;25.40;;;;;;4950714;28;20049;-69
2023/07/10 09:40:39;;;;;;;5.15;1.63;;;23.00;20.80;;;;;;4950218;28;20129;-68
2023/07/10 09:43:14;;;;;;;2.75;0.95;;;22.70;32.50;;;;;;4945381;28;20097;-69
2023/07/10 09:45:44;;;;;;;7.00;1.60;;;22.70;26.80;;;;;;4967243;28;20058;-68
2023/07/10 09:48:22;;;;;;;6.03;1.45;;;22.90;22.10;;;;;;4948636;28;20490;-69
2023/07/10 09:50:51;;;;;;;4.88;1.50;;;23.10;22.10;;;;;;4967352;28;20441;-69
2023/07/10 09:53:27;;;;;;;6.63;2.03;;;23.10;13.10;;;;;;4967230;28;20050;-69
2023/07/10 09:55:54;;;;;;;6.28;1.40;;;23.10;11.40;;;;;;4949874;28;20042;-69
2023/07/10 09:58:19;;;;;;;10.15;1.80;;;23.20;12.50;;;;;;4933695;28;20044;-69
2023/07/10 10:00:48;;;;;;;8.90;1.88;;;23.20;12.80;;;;;;4932495;28;20066;-68
2023/07/10 10:03:39;;;;;;;8.73;2.28;;;22.90;17.70;;;;;;4938620;28;20439;-69
2023/07/10 10:06:05;;;;;;;4.40;1.23;;;22.80;21.90;;;;;;4942486;28;20063;-68
2023/07/10 10:08:44;;;;;;;6.78;1.63;;;22.80;18.20;;;;;;4931750;29;20143;-69
2023/07/10 10:11:12;;;;;;;5.55;1.33;;;22.80;18.70;;;;;;4922424;29;20090;-68
2023/07/10 10:13:47;;;;;;;4.95;1.45;;;22.80;19.60;;;;;;4948916;29;20061;-68
2023/07/10 10:16:27;;;;;;;5.60;1.52;;;22.70;17.10;;;;;;4921668;29;20055;-68
2023/07/10 10:19:08;;;;;;;10.20;2.70;;;22.70;18.20;;;;;;4932628;29;20055;-69
2023/07/10 10:21:35;;;;;;;6.90;1.80;;;23.10;32.50;;;;;;4928530;29;20078;-69
2023/07/10 10:24:07;;;;;;;2.50;1.20;;;23.10;16.30;;;;;;4920571;29;20054;-69
2023/07/10 10:26:55;;;;;;;4.85;1.63;;;23.10;14.40;;;;;;4944738;29;20118;-69
2023/07/10 10:30:01;;;;;;;6.30;1.80;;;23.20;20.10;;;;;;4935082;29;20142;-69
2023/07/10 10:32:54;;;;;;;3.35;1.55;;;23.20;10.10;;;;;;4928587;29;20616;-69
2023/07/10 10:35:27;;;;;;;4.60;1.60;;;23.10;14.40;;;;;;4927306;29;20514;-69
2023/07/10 10:38:05;;;;;;;5.68;1.88;;;23.10;8.60;;;;;;4923298;29;20099;-69
2023/07/10 10:40:40;;;;;;;3.53;1.65;;;23.20;11.30;;;;;;4914380;29;20262;-69
2023/07/10 10:43:28;;;;;;;5.50;1.25;;;23.40;11.60;;;;;;4947833;29;20051;-69
2023/07/10 10:46:23;;;;;;;14.70;2.30;;;23.20;7.50;;;;;;4944362;29;20115;-68
2023/07/10 10:49:16;;;;;;;5.35;1.45;;;23.20;11.80;;;;;;4940100;29;20055;-69
2023/07/10 10:52:24;;;;;;;6.82;1.73;;;23.30;10.60;;;;;;4950933;29;20502;-69
2023/07/10 10:55:05;;;;;;;3.88;1.60;;;23.60;1.00;;;;;;4921694;29;20071;-69
2023/07/10 10:57:36;;;;;;;8.95;1.50;;;23.80;1.00;;;;;;4916946;29;20134;-69
2023/07/10 11:00:22;;;;;;;3.92;1.50;;;24.00;1.00;;;;;;4934758;29;20058;-69
2023/07/10 11:03:25;;;;;;;6.47;1.58;;;24.10;1.00;;;;;;4949925;29;20062;-68
2023/07/10 11:05:58;;;;;;;9.30;3.13;;;23.90;1.00;;;;;;4922748;29;20055;-67
2023/07/10 11:08:33;;;;;;;5.55;1.95;;;23.70;1.00;;;;;;4951905;28;20336;-69
2023/07/10 11:11:02;;;;;;;7.35;1.83;;;23.50;1.00;;;;;;4924269;29;20090;-67
2023/07/10 11:13:35;;;;;;;6.32;1.63;;;23.40;5.10;;;;;;4934231;29;20054;-68
2023/07/10 11:16:03;;;;;;;5.47;1.65;;;23.30;1.00;;;;;;4951417;29;20047;-69
2023/07/10 11:18:29;;;;;;;5.38;1.40;;;23.40;1.00;;;;;;4929801;29;20044;-68
2023/07/10 11:20:57;;;;;;;12.52;2.42;;;23.70;6.00;;;;;;4945633;29;20518;-68
2023/07/10 11:23:50;;;;;;;4.47;1.77;;;23.90;5.90;;;;;;4932063;29;20073;-69
2023/07/10 11:26:22;;;;;;;4.60;1.42;;;24.10;1.00;;;;;;4937559;29;20051;-68
2023/07/10 11:28:50;;;;;;;7.85;2.10;;;24.30;1.00;;;;;;4946767;29;20048;-69
2023/07/10 11:31:25;;;;;;;6.40;1.38;;;24.40;1.00;;;;;;4947418;28;20121;-69
2023/07/10 11:33:59;;;;;;;4.75;1.30;;;24.40;1.00;;;;;;4936602;29;20055;-69
2023/07/10 11:36:25;;;;;;;5.43;1.55;;;24.40;1.00;;;;;;4931243;29;20130;-69
2023/07/10 11:39:30;;;;;;;6.95;1.40;;;24.20;1.00;;;;;;4928989;29;20063;-69
2023/07/10 11:42:03;;;;;;;7.30;1.70;;;24.20;1.00;;;;;;4933388;29;20051;-67
2023/07/10 11:44:28;;;;;;;7.00;1.63;;;24.40;1.00;;;;;;4949720;29;20043;-68
2023/07/10 11:47:00;;;;;;;7.35;1.48;;;24.50;1.00;;;;;;4930928;29;20066;-67
2023/07/10 11:49:28;;;;;;;6.70;1.40;;;24.60;1.00;;;;;;4929189;29;20054;-68
2023/07/10 11:52:15;;;;;;;5.07;1.48;;;24.70;1.00;;;;;;4933153;29;20878;-68
2023/07/10 11:54:47;;;;;;;5.75;1.70;;;24.60;1.00;;;;;;4946127;29;20082;-67
2023/07/10 11:57:26;;;;;;;4.60;1.70;;;24.30;1.00;;;;;;4925899;29;20047;-68
2023/07/10 11:59:57;;;;;;;;;;;24.30;1.00;;;;;;4933240;29;20051;-67
2023/07/10 12:02:39;;;;;;;5.80;1.33;;;24.30;1.00;;;;;;4948987;28;19926;-67
2023/07/10 12:05:31;;;;;;;5.82;1.65;;;24.20;1.00;;;;;;4947369;29;20055;-68
2023/07/10 12:08:02;;;;;;;4.35;1.20;;;24.00;1.00;;;;;;4947448;28;20055;-68
2023/07/10 12:10:30;;;;;;;4.78;1.15;;;23.90;1.00;;;;;;4919764;29;20047;-69
2023/07/10 12:12:59;;;;;;;5.38;1.65;;;23.90;1.00;;;;;;4941314;29;20055;-68
2023/07/10 12:15:26;;;;;;;6.05;1.70;;;24.10;1.00;;;;;;4931423;29;20055;-67
2023/07/10 12:17:54;;;;;;;5.20;1.65;;;24.20;1.00;;;;;;4946880;29;20098;-68
2023/07/10 12:20:30;;;;;;;4.30;1.50;;;24.20;1.00;;;;;;4931107;29;20062;-68
2023/07/10 12:23:03;;;;;;;10.77;2.72;;;24.00;1.00;;;;;;4946409;29;20146;-68
2023/07/10 12:25:28;;;;;;;6.60;2.10;;;23.70;9.60;;;;;;4932062;29;20134;-68
2023/07/10 12:27:57;;;;;;;5.57;1.63;;;23.30;8.30;;;;;;4945072;29;20637;-68
2023/07/10 12:30:26;;;;;;;8.88;1.85;;;23.00;16.50;;;;;;4949021;28;20751;-68
2023/07/10 12:32:54;;;;;;;9.18;1.90;;;22.90;15.50;;;;;;4930253;29;20114;-68
2023/07/10 12:35:30;;;;;;;5.45;1.67;;;22.90;18.40;;;;;;4945589;29;20158;-69
2023/07/10 12:37:59;;;;;;;5.32;1.83;;;23.00;23.30;;;;;;4913646;29;20087;-69
2023/07/10 12:40:28;;;;;;;10.60;1.63;;;23.00;30.40;;;;;;4936447;29;20505;-68
2023/07/10 12:42:54;;;;;;;7.45;1.75;;;23.10;41.90;;;;;;4930882;29;20182;-67
2023/07/10 12:45:34;;;;;;;9.82;1.55;;;23.40;57.40;;;;;;4947719;29;20186;-68
2023/07/10 12:48:13;;;;;;;5.20;1.42;;;23.40;48.60;;;;;;4944291;29;20421;-68
2023/07/10 12:50:51;;;;;;;3.85;1.48;;;23.50;39.60;;;;;;4931774;29;20134;-67
2023/07/10 12:53:22;;;;;;;5.15;1.60;;;23.50;42.50;;;;;;4938632;29;20127;-69
2023/07/10 12:55:58;;;;;;;3.92;1.15;;;23.40;23.40;;;;;;4925196;29;20545;-68
2023/07/10 12:58:23;;;;;;;4.40;1.50;;;23.50;25.30;;;;;;4942097;29;20047;-69